createdAt,value
2023-02-02T01:33:41.493Z,2.10
2023-02-02T01:36:20.937Z,2.14
2023-02-02T01:38:49.407Z,2.13
2023-02-02T01:41:19.523Z,2.13
2023-02-02T01:43:47.874Z,2.13
2023-02-02T01:46:28.505Z,2.13
2023-02-02T01:48:56.586Z,2.13
2023-02-02T01:51:30.094Z,2.13
2023-02-02T01:54:00.765Z,2.13
2023-02-02T01:56:34.738Z,2.13
2023-02-02T01:59:03.105Z,2.13
2023-02-02T02:01:34.394Z,2.12
2023-02-02T02:04:02.588Z,2.12
2023-02-02T02:06:30.962Z,2.11
2023-02-02T02:09:03.831Z,2.10
2023-02-02T02:11:33.203Z,2.11
2023-02-02T02:14:23.609Z,2.11
2023-02-02T02:17:16.729Z,2.10
2023-02-02T02:20:38.683Z,2.11
2023-02-02T02:23:48.686Z,2.10
2023-02-02T02:26:35.943Z,2.09
2023-02-02T02:29:05.765Z,2.10
2023-02-02T02:32:22.776Z,2.11
2023-02-02T02:35:22.019Z,2.10
2023-02-02T02:37:54.497Z,2.09
2023-02-02T02:40:31.514Z,2.10
2023-02-02T02:43:08.856Z,2.10
2023-02-02T02:45:37.847Z,2.10
2023-02-02T02:48:06.572Z,2.09
2023-02-02T02:50:40.751Z,2.09
2023-02-02T02:53:16.740Z,2.08
2023-02-02T02:55:54.683Z,2.06
2023-02-02T02:58:41.722Z,2.06
2023-02-02T03:01:20.267Z,2.05
2023-02-02T03:04:17.337Z,2.04
2023-02-02T03:06:50.588Z,2.04
2023-02-02T03:09:23.489Z,2.05
2023-02-02T03:11:51.818Z,2.05
2023-02-02T03:14:20.113Z,2.04
2023-02-02T03:16:51.278Z,2.03
2023-02-02T03:19:19.659Z,2.04
2023-02-02T03:21:47.912Z,2.05
2023-02-02T03:24:16.172Z,2.06
2023-02-02T03:26:45.629Z,2.07
2023-02-02T03:29:14.771Z,2.07
2023-02-02T03:31:43.539Z,2.07
2023-02-02T03:34:11.804Z,2.07
2023-02-02T03:36:39.932Z,2.07
2023-02-02T03:39:11.179Z,2.08
2023-02-02T03:41:39.493Z,2.08
2023-02-02T03:44:07.673Z,2.09
2023-02-02T03:46:36.302Z,2.10
2023-02-02T03:49:04.432Z,2.10
2023-02-02T03:51:33.967Z,2.12
2023-02-02T03:54:02.236Z,2.13
2023-02-02T03:56:30.665Z,2.14
2023-02-02T03:58:58.897Z,2.14
2023-02-02T04:01:30.101Z,2.16
2023-02-02T04:03:58.680Z,2.16
2023-02-02T04:06:27.396Z,2.16
2023-02-02T04:08:56.044Z,2.16
2023-02-02T04:11:24.222Z,2.17
2023-02-02T04:13:52.443Z,2.16
2023-02-02T04:16:20.703Z,2.16
2023-02-02T04:18:48.943Z,2.15
2023-02-02T04:21:17.111Z,2.15
2023-02-02T04:23:45.255Z,2.15
2023-02-02T04:26:14.129Z,2.15
2023-02-02T04:28:42.399Z,2.14
2023-02-02T04:31:10.565Z,2.14
2023-02-02T04:33:42.565Z,2.14
2023-02-02T04:36:10.664Z,2.14
2023-02-02T04:38:39.372Z,2.14
2023-02-02T04:41:08.381Z,2.13
2023-02-02T04:43:37.332Z,2.13
2023-02-02T04:46:06.514Z,2.11
2023-02-02T04:48:35.188Z,2.10
2023-02-02T04:51:05.694Z,2.09
2023-02-02T04:53:33.987Z,2.07
2023-02-02T04:56:09.910Z,2.08
2023-02-02T04:58:38.061Z,2.08
2023-02-02T05:01:13.073Z,2.08
2023-02-02T05:03:41.357Z,2.07
2023-02-02T05:06:09.574Z,2.07
2023-02-02T05:08:38.039Z,2.07
2023-02-02T05:11:08.054Z,2.07
2023-02-02T05:13:36.501Z,2.07
2023-02-02T05:16:05.710Z,2.07
2023-02-02T05:18:34.497Z,2.07
2023-02-02T05:21:03.382Z,2.06
2023-02-02T05:23:32.123Z,2.05
2023-02-02T05:26:00.513Z,2.04
2023-02-02T05:28:29.604Z,2.04
2023-02-02T05:30:57.990Z,2.04
2023-02-02T05:33:26.165Z,2.03
2023-02-02T05:35:54.282Z,2.03
2023-02-02T05:38:22.502Z,2.01
2023-02-02T05:40:50.760Z,2.01
2023-02-02T05:43:21.494Z,2.00
2023-02-02T05:45:49.841Z,2.00
2023-02-02T05:48:18.073Z,2.00
2023-02-02T05:50:49.651Z,1.99
2023-02-02T05:53:17.778Z,1.98
2023-02-02T05:55:46.693Z,1.99
2023-02-02T05:58:14.836Z,1.99
2023-02-02T06:00:44.803Z,1.99
2023-02-02T06:03:13.449Z,1.99
2023-02-02T06:05:41.794Z,1.99
2023-02-02T06:08:09.855Z,1.99
2023-02-02T06:10:41.154Z,1.99
2023-02-02T06:13:09.435Z,1.98
2023-02-02T06:15:39.727Z,1.99
2023-02-02T06:18:08.612Z,2.00
2023-02-02T06:20:36.710Z,2.00
2023-02-02T06:23:05.311Z,2.01
2023-02-02T06:25:34.552Z,2.01
2023-02-02T06:28:02.845Z,2.01
2023-02-02T06:30:31.432Z,2.02
2023-02-02T06:32:59.857Z,2.02
2023-02-02T10:22:32.343Z,3.31
2023-02-02T10:25:01.094Z,3.28
2023-02-02T10:27:39.751Z,3.27
2023-02-02T10:30:47.140Z,3.27
2023-02-02T10:33:20.851Z,3.26
2023-02-02T10:35:58.150Z,3.25
2023-02-02T10:38:37.556Z,3.26
2023-02-02T10:41:24.280Z,3.26
2023-02-02T10:44:04.352Z,3.27
2023-02-02T10:46:43.474Z,3.28
2023-02-02T10:49:41.124Z,3.29
2023-02-02T10:52:12.266Z,3.34
2023-02-02T10:54:55.735Z,3.41
2023-02-02T10:58:04.127Z,3.45
2023-02-02T11:00:48.077Z,3.49
2023-02-02T11:03:22.295Z,3.53
2023-02-02T11:06:09.202Z,3.56
2023-02-02T11:08:46.073Z,3.59
2023-02-02T11:11:24.965Z,3.60
2023-02-02T11:14:01.939Z,3.59
2023-02-02T11:16:42.015Z,3.57
2023-02-02T11:19:17.483Z,3.54
2023-02-02T11:21:48.768Z,3.53
2023-02-02T11:24:40.386Z,3.52
2023-02-02T11:27:14.449Z,3.53
2023-02-02T11:29:45.718Z,3.54
2023-02-02T11:32:33.150Z,3.55
2023-02-02T11:35:08.382Z,3.57
2023-02-02T11:37:51.719Z,3.60
2023-02-02T11:40:28.609Z,3.64
2023-02-02T11:42:58.576Z,3.68
2023-02-02T11:45:36.383Z,3.70
2023-02-02T11:48:26.146Z,3.72
2023-02-02T11:50:55.733Z,3.77
2023-02-02T11:53:24.028Z,3.82
2023-02-02T11:55:53.060Z,3.84
2023-02-02T11:58:25.165Z,3.84
2023-02-02T12:00:57.873Z,3.85
2023-02-02T12:03:34.162Z,3.86
2023-02-02T12:06:20.325Z,3.88
2023-02-02T12:08:48.762Z,3.92
2023-02-02T12:11:42.372Z,3.97
2023-02-02T12:14:12.223Z,4.01
2023-02-02T12:16:53.923Z,4.05
2023-02-02T12:19:25.062Z,4.09
2023-02-02T12:21:53.293Z,4.12
2023-02-02T12:24:34.224Z,4.15
2023-02-02T12:27:13.889Z,4.18
2023-02-02T12:29:44.834Z,4.19
2023-02-02T12:32:23.364Z,4.18
2023-02-02T12:35:21.651Z,4.17
2023-02-02T12:37:53.505Z,4.18
2023-02-02T12:40:38.871Z,4.16
2023-02-02T12:43:39.590Z,4.15
2023-02-02T12:46:19.088Z,4.14
2023-02-02T12:49:18.137Z,4.13
2023-02-02T12:52:09.477Z,4.13
2023-02-02T12:55:04.143Z,4.13
2023-02-02T12:57:50.396Z,4.14
2023-02-02T13:00:38.461Z,4.15
2023-02-02T13:03:29.926Z,4.17
2023-02-02T13:06:16.415Z,4.15
2023-02-02T13:08:47.681Z,4.13
2023-02-02T13:11:32.872Z,4.10
2023-02-02T13:14:29.603Z,4.08
2023-02-02T13:17:01.977Z,4.06
2023-02-02T13:19:46.446Z,4.06
2023-02-02T13:22:18.435Z,4.06
2023-02-02T13:24:48.111Z,4.04
2023-02-02T13:27:18.736Z,4.03
2023-02-02T13:29:53.074Z,4.00
2023-02-02T13:32:34.552Z,3.97
2023-02-02T13:35:23.256Z,3.93
2023-02-02T13:37:55.985Z,3.89
2023-02-02T13:40:32.455Z,3.88
2023-02-02T13:43:19.361Z,3.85
2023-02-02T13:45:53.500Z,3.82
2023-02-02T13:48:25.940Z,3.78
2023-02-02T13:51:09.657Z,3.77
2023-02-02T13:53:47.490Z,3.75
2023-02-02T13:56:22.241Z,3.73
2023-02-02T13:58:57.020Z,3.72
2023-02-02T14:01:25.164Z,3.70
2023-02-02T14:03:54.766Z,3.67
2023-02-02T14:06:24.989Z,3.63
2023-02-02T14:08:56.229Z,3.59
2023-02-02T14:11:28.086Z,3.55
2023-02-02T14:14:38.194Z,3.52
2023-02-02T14:17:26.552Z,3.49
2023-02-02T14:19:56.178Z,3.46
2023-02-02T14:22:51.853Z,3.44
2023-02-02T14:25:29.274Z,3.43
2023-02-02T14:28:00.295Z,3.43
2023-02-02T14:30:34.000Z,3.41
2023-02-02T14:33:18.537Z,3.40
2023-02-02T14:35:47.356Z,3.38
2023-02-02T14:38:51.152Z,3.37
2023-02-02T14:41:47.198Z,3.36
2023-02-02T14:44:15.270Z,3.34
2023-02-02T14:46:49.172Z,3.32
2023-02-02T14:49:19.001Z,3.31
2023-02-02T14:51:49.703Z,3.29
2023-02-02T14:54:26.883Z,3.27
2023-02-02T14:56:59.041Z,3.24
2023-02-02T14:59:34.025Z,3.21
2023-02-02T15:02:30.983Z,3.20
2023-02-02T15:05:27.028Z,3.19
2023-02-02T15:08:06.014Z,3.17
2023-02-02T15:10:54.048Z,3.16
2023-02-02T15:13:24.079Z,3.14
2023-02-02T15:15:59.322Z,3.11
2023-02-02T15:18:31.280Z,3.08
2023-02-02T15:21:00.378Z,3.03
2023-02-02T15:23:41.729Z,2.99
2023-02-02T15:26:25.798Z,2.93
2023-02-02T15:29:39.201Z,2.88
2023-02-02T15:32:08.020Z,2.82
2023-02-02T15:34:40.595Z,2.78
2023-02-02T15:37:20.713Z,2.74
2023-02-02T15:39:51.875Z,2.71
2023-02-02T15:42:55.225Z,2.63
2023-02-02T15:45:51.007Z,2.54
2023-02-02T15:48:30.253Z,2.46
2023-02-02T15:51:00.913Z,2.39
2023-02-02T15:53:45.760Z,2.32
2023-02-02T15:56:20.147Z,2.28
2023-02-02T15:58:49.132Z,2.24
2023-02-02T16:01:20.580Z,2.20
2023-02-02T16:04:01.361Z,2.15
2023-02-02T16:06:29.784Z,2.12
2023-02-02T17:23:51.608Z,1.54
2023-02-02T17:26:19.960Z,1.56
2023-02-02T17:28:48.138Z,1.55
2023-02-02T17:31:16.280Z,1.56
2023-02-02T17:33:44.638Z,1.57
2023-02-02T17:36:13.345Z,1.59
2023-02-02T17:38:41.724Z,1.59
2023-02-02T17:41:10.097Z,1.58
2023-02-02T17:43:43.016Z,1.57
2023-02-02T17:46:13.679Z,1.55
2023-02-02T17:48:44.363Z,1.55
2023-02-02T17:51:16.341Z,1.56
2023-02-02T17:53:45.184Z,1.57
2023-02-02T17:56:13.254Z,1.61
2023-02-02T17:58:41.658Z,1.64
2023-02-02T18:01:10.631Z,1.67
2023-02-02T18:03:39.589Z,1.69
2023-02-02T18:06:09.102Z,1.71
2023-02-02T18:08:37.756Z,1.74
2023-02-02T18:11:06.176Z,1.76
2023-02-02T18:13:34.259Z,1.77
2023-02-02T18:16:02.924Z,1.78
2023-02-02T18:18:31.149Z,1.80
2023-02-02T18:20:59.368Z,1.81
2023-02-02T18:23:27.449Z,1.83
2023-02-02T18:25:55.641Z,1.85
2023-02-02T18:28:23.796Z,1.86
2023-02-02T18:30:52.262Z,1.87
2023-02-02T18:33:20.511Z,1.88
2023-02-02T18:35:48.787Z,1.88
2023-02-02T18:38:18.106Z,1.88
2023-02-02T18:40:46.278Z,1.89
2023-02-02T18:43:14.523Z,1.90
2023-02-02T18:45:42.854Z,1.92
2023-02-02T18:48:11.178Z,1.92
2023-02-02T18:50:39.559Z,1.92
2023-02-02T18:53:07.703Z,1.92
2023-02-02T18:55:37.540Z,1.92
2023-02-02T18:58:08.079Z,1.93
2023-02-02T19:00:36.488Z,1.94
2023-02-02T19:03:05.249Z,1.93
2023-02-02T19:05:52.693Z,1.93
2023-02-02T19:08:21.417Z,1.92
2023-02-02T19:10:50.926Z,1.93
2023-02-02T19:13:20.450Z,1.93
2023-02-02T19:15:49.167Z,1.93
2023-02-02T19:18:19.598Z,1.94
2023-02-02T19:20:48.393Z,1.95
2023-02-02T19:23:18.394Z,1.96
2023-02-02T19:25:56.169Z,1.97
2023-02-02T19:28:29.087Z,1.98
2023-02-02T19:30:59.286Z,1.97
2023-02-02T19:33:52.017Z,1.98
2023-02-02T19:36:24.721Z,1.99
2023-02-02T19:38:56.227Z,2.00
2023-02-02T19:41:25.535Z,2.00
2023-02-02T19:43:59.019Z,1.98
2023-02-02T19:46:29.392Z,1.97
2023-02-02T19:49:18.544Z,1.97
2023-02-02T19:51:48.761Z,1.97
2023-02-02T19:54:37.305Z,1.96
2023-02-02T19:57:26.807Z,1.96
2023-02-02T19:59:55.250Z,1.95
2023-02-02T20:03:02.813Z,1.95
2023-02-02T20:05:38.179Z,1.92
2023-02-02T20:08:31.618Z,1.91
2023-02-02T20:11:06.281Z,1.90
2023-02-02T20:13:39.265Z,1.91
2023-02-02T20:16:15.826Z,1.91
2023-02-02T20:18:45.394Z,1.93
2023-02-02T20:21:39.292Z,1.94
2023-02-02T20:24:34.609Z,1.95
2023-02-02T20:27:13.132Z,1.96
2023-02-02T20:29:42.472Z,1.98
2023-02-02T20:32:37.792Z,1.99
2023-02-02T20:35:37.206Z,1.99
2023-02-02T20:38:23.760Z,2.00
2023-02-02T20:40:52.404Z,2.01
2023-02-02T20:43:20.866Z,2.04
2023-02-02T20:45:49.093Z,2.06
2023-02-02T20:48:17.289Z,2.08
2023-02-02T20:50:46.956Z,2.09
2023-02-02T20:53:16.549Z,2.11
2023-02-02T20:55:45.040Z,2.13
2023-02-02T20:58:14.396Z,2.14
2023-02-02T21:00:42.769Z,2.15
2023-02-02T21:03:10.842Z,2.15
2023-02-02T21:05:38.891Z,2.15
2023-02-02T21:08:07.697Z,2.15
2023-02-02T21:10:36.203Z,2.16
2023-02-02T21:13:04.773Z,2.18
2023-02-02T21:15:33.208Z,2.18
2023-02-02T21:18:03.098Z,2.19
2023-02-02T21:20:31.492Z,2.19
2023-02-02T21:22:59.551Z,2.19
2023-02-02T21:25:28.083Z,2.18
2023-02-02T21:28:00.359Z,2.18
2023-02-02T21:30:29.119Z,2.18
2023-02-02T21:32:57.396Z,2.18
2023-02-02T21:35:26.072Z,2.18
2023-02-02T21:37:56.572Z,2.17
2023-02-02T21:40:30.418Z,2.17
2023-02-02T21:42:59.973Z,2.17
2023-02-02T21:45:38.086Z,2.17
2023-02-02T21:48:19.831Z,2.18
2023-02-02T21:50:47.940Z,2.20
2023-02-02T21:53:23.539Z,2.22
2023-02-02T21:55:56.062Z,2.22
2023-02-02T21:58:42.158Z,2.23
2023-02-02T22:01:16.561Z,2.23
2023-02-02T22:03:46.859Z,2.24
2023-02-02T22:06:20.983Z,2.25
2023-02-02T22:08:49.410Z,2.25
2023-02-02T22:11:23.525Z,2.25
2023-02-02T22:13:52.268Z,2.25
2023-02-02T22:16:20.937Z,2.25
2023-02-02T22:18:49.160Z,2.24
2023-02-02T22:21:20.822Z,2.24
2023-02-02T22:23:49.262Z,2.25
2023-02-02T22:26:29.388Z,2.27
2023-02-02T22:28:57.410Z,2.27
2023-02-02T22:31:25.577Z,2.28
2023-02-02T22:33:53.758Z,2.27
2023-02-02T22:36:21.945Z,2.27
2023-02-02T22:38:49.956Z,2.27
2023-02-02T22:41:18.092Z,2.27
2023-02-02T22:43:46.711Z,2.25
2023-02-02T22:46:14.792Z,2.25
2023-02-02T22:48:43.462Z,2.25
2023-02-02T22:51:11.794Z,2.24
2023-02-02T22:53:39.955Z,2.24
2023-02-02T22:56:08.328Z,2.22
2023-02-02T22:58:37.731Z,2.21
2023-02-02T23:01:06.098Z,2.17
2023-02-02T23:03:34.148Z,2.16
2023-02-02T23:06:02.307Z,2.14
2023-02-02T23:08:30.524Z,2.12
2023-02-02T23:11:18.426Z,2.12
2023-02-02T23:13:46.581Z,2.12
2023-02-02T23:16:14.972Z,2.13
2023-02-02T23:18:43.109Z,2.13
2023-02-02T23:21:11.302Z,2.13
2023-02-02T23:23:39.382Z,2.14
2023-02-02T23:26:07.498Z,2.15
2023-02-02T23:28:35.677Z,2.15
2023-02-02T23:31:04.019Z,2.14
2023-02-02T23:33:32.415Z,2.14
2023-02-02T23:36:00.537Z,2.14
2023-02-02T23:38:28.820Z,2.15
2023-02-02T23:40:56.931Z,2.16
2023-02-02T23:43:25.023Z,2.17
2023-02-02T23:45:53.417Z,2.17
2023-02-02T23:48:21.577Z,2.19
2023-02-02T23:50:49.729Z,2.18
2023-02-02T23:53:17.996Z,2.17
2023-02-02T23:55:49.186Z,2.16
2023-02-02T23:58:19.056Z,2.15
